Terminal Aerodrome Forecast
Issued by NWS Albuquerque, NM

Home | Current Version | Previous Version | Text Only | Print | Product List | Glossary On
Versions: 1 2 3 4 5 6 7 8 9 10 11 12 13 14 15 16 17
000
FTUS45 KABQ 221735
TAFABQ
TAF
KABQ 221735Z 2218/2318 17006KT P6SM FEW050
     FM222100 16009KT P6SM SCT060
     FM222300 11013G22KT P6SM VCSH SCT070
     FM230200 08019G28KT P6SM VCTS BKN070CB
     FM230600 08012KT P6SM SCT070 SCT120=

USA.gov is the U.S. government's official web portal to all federal, state and local government web resources and services.